KDPG/DPG METAR and TAF weather

Enter ICAO airport designator
Station Type Date Time Source
KDPG METAR 2020/09/24 22:55 UTC NOAA

KDPG 242255Z 29004KT 30SM SKC 33/M04 A2995 RMK HZ DSNT SW-NW SLP093 T03271041 LAST


Station Type Date Time Source
KDPG Decoded METAR 2020/09/24 22:55 UTC NOAA

Dugway Proving Grounds, UT, United States (KDPG) 40-10N 112-56W 1325M
Sep 24, 2020 - 06:55 PM EDT / 2020.09.24 2255 UTC
Wind: from the WNW (290 degrees) at 5 MPH (4 KT):0
Visibility: 30 mile(s):0
Sky conditions: clear
Temperature: 90.9 F (32.7 C)
Dew Point: 24.6 F (-4.1 C)
Relative Humidity: 9%
Pressure (altimeter): 29.95 in. Hg (1014 hPa)
ob: KDPG 242255Z 29004KT 30SM SKC 33/M04 A2995 RMK HZ DSNT SW-NW SLP093 T03271041 LAST
cycle: 23

Station Type Date Time Source
KDPG TAF UTC NOAA

Error!

Example: see airport list